createdAt,value
2023-05-24T00:00:45.169Z,4.68
2023-05-24T00:01:49.203Z,5.10
2023-05-24T00:02:52.388Z,10.65
2023-05-24T00:04:01.968Z,4.87
2023-05-24T00:05:05.737Z,5.00
2023-05-24T00:06:08.893Z,4.00
2023-05-24T00:07:12.194Z,8.18
2023-05-24T00:08:16.568Z,4.65
2023-05-24T00:09:19.739Z,4.72
2023-05-24T00:10:22.925Z,4.55
2023-05-24T00:11:28.228Z,5.53
2023-05-24T00:12:31.383Z,5.87
2023-05-24T00:13:34.417Z,5.05
2023-05-24T00:14:37.695Z,5.03
2023-05-24T00:15:41.169Z,5.05
2023-05-24T00:16:44.468Z,7.60
2023-05-24T00:17:47.532Z,4.43
2023-05-24T00:18:50.839Z,4.78
2023-05-24T00:19:54.069Z,4.95
2023-05-24T00:20:58.821Z,6.22
2023-05-24T00:22:01.749Z,5.45
2023-05-24T00:23:04.705Z,4.75
2023-05-24T00:24:07.754Z,5.25
2023-05-24T00:25:10.888Z,5.62
2023-05-24T00:26:13.890Z,5.15
2023-05-24T00:27:16.900Z,6.62
2023-05-24T00:28:19.989Z,9.73
2023-05-24T00:29:23.092Z,6.45
2023-05-24T00:30:26.121Z,5.45
2023-05-24T00:31:29.158Z,9.23
2023-05-24T00:32:32.240Z,6.97
2023-05-24T00:33:35.334Z,8.88
2023-05-24T00:34:38.257Z,4.57
2023-05-24T00:35:41.360Z,7.25
2023-05-24T00:36:44.403Z,4.97
2023-05-24T00:37:48.432Z,4.68
2023-05-24T00:38:53.236Z,6.18
2023-05-24T00:39:56.208Z,5.80
2023-05-24T00:41:01.484Z,6.20
2023-05-24T00:42:04.679Z,6.87
2023-05-24T00:43:07.723Z,5.82
2023-05-24T00:44:11.336Z,7.95
2023-05-24T00:45:14.637Z,7.28
2023-05-24T00:46:30.661Z,4.68
2023-05-24T00:47:34.564Z,3.90
2023-05-24T00:48:37.559Z,5.00
2023-05-24T00:49:40.908Z,4.97
2023-05-24T00:50:44.061Z,4.60
2023-05-24T00:51:47.371Z,5.43
2023-05-24T00:52:51.901Z,7.03
2023-05-24T00:53:55.516Z,4.07
2023-05-24T00:54:58.698Z,5.47
2023-05-24T00:56:03.097Z,5.37
2023-05-24T00:57:06.410Z,4.40
2023-05-24T00:58:09.501Z,6.40
2023-05-24T00:59:12.800Z,5.70
2023-05-24T01:00:16.330Z,6.82
2023-05-24T01:01:19.355Z,5.22
2023-05-24T01:02:22.660Z,5.40
2023-05-24T01:03:29.614Z,6.57
2023-05-24T01:04:33.480Z,3.95
2023-05-24T01:05:36.611Z,6.03
2023-05-24T01:07:08.043Z,5.25
2023-05-24T01:08:29.647Z,6.30
2023-05-24T01:09:42.002Z,5.25
2023-05-24T01:11:01.858Z,6.45
2023-05-24T01:12:31.407Z,5.80
2023-05-24T01:13:39.237Z,6.25
2023-05-24T01:15:00.295Z,6.07
2023-05-24T01:16:16.212Z,6.93
2023-05-24T01:17:32.052Z,6.78
2023-05-24T01:18:44.812Z,6.60
2023-05-24T01:19:56.847Z,9.45
2023-05-24T01:21:30.818Z,6.43
2023-05-24T01:22:53.729Z,6.40
2023-05-24T01:24:26.147Z,7.07
2023-05-24T01:27:10.222Z,13.05
2023-05-24T01:28:13.945Z,9.93
2023-05-24T01:29:18.321Z,7.57
2023-05-24T01:30:21.599Z,9.55
2023-05-24T01:31:25.097Z,7.35
2023-05-24T01:32:28.898Z,13.50
2023-05-24T01:33:32.872Z,7.10
2023-05-24T01:34:36.016Z,7.80
2023-05-24T01:35:42.912Z,7.43
2023-05-24T01:36:45.961Z,11.18
2023-05-24T01:37:49.091Z,8.93
2023-05-24T01:38:52.389Z,8.90
2023-05-24T01:39:55.735Z,7.78
2023-05-24T01:41:06.619Z,9.02
2023-05-24T01:42:25.028Z,8.07
2023-05-24T01:43:36.138Z,9.88
2023-05-24T01:45:18.710Z,5.80
2023-05-24T01:46:39.109Z,7.37
2023-05-24T01:47:54.772Z,7.93
2023-05-24T01:49:12.015Z,8.38
2023-05-24T01:50:37.439Z,7.82
2023-05-24T01:51:54.438Z,8.88
2023-05-24T01:53:04.050Z,8.00
2023-05-24T01:54:08.098Z,7.70
2023-05-24T01:55:15.674Z,7.57
2023-05-24T01:56:20.966Z,7.70
2023-05-24T01:57:27.315Z,7.50
2023-05-24T01:58:32.542Z,6.70
2023-05-24T01:59:36.610Z,8.95
2023-05-24T02:00:41.277Z,6.93
2023-05-24T02:01:45.016Z,5.80
2023-05-24T02:02:48.490Z,8.90
2023-05-24T02:03:51.683Z,8.82
2023-05-24T02:04:55.008Z,8.52
2023-05-24T02:05:58.063Z,7.28
2023-05-24T02:07:01.076Z,5.47
2023-05-24T02:08:04.087Z,6.00
2023-05-24T02:09:07.039Z,7.70
2023-05-24T02:10:10.160Z,7.78
2023-05-24T02:11:13.155Z,7.28
2023-05-24T02:12:16.294Z,7.10
2023-05-24T02:13:20.072Z,5.80
2023-05-24T02:14:23.080Z,5.30
2023-05-24T02:15:30.979Z,7.10
2023-05-24T02:16:34.177Z,6.40
2023-05-24T02:17:37.340Z,8.23
2023-05-24T02:18:40.440Z,6.75
2023-05-24T02:19:43.518Z,5.47
2023-05-24T02:20:47.253Z,9.45
2023-05-24T02:21:50.413Z,9.07
2023-05-24T02:22:53.435Z,12.40
2023-05-24T02:23:57.347Z,7.62
2023-05-24T02:25:00.317Z,6.20
2023-05-24T02:26:03.323Z,8.77
2023-05-24T02:27:07.005Z,7.15
2023-05-24T02:28:10.014Z,7.22
2023-05-24T02:29:13.222Z,9.50
2023-05-24T02:30:16.249Z,6.93
2023-05-24T02:31:19.277Z,8.35
2023-05-24T02:32:22.404Z,9.73
2023-05-24T02:33:30.258Z,8.82
2023-05-24T02:34:33.513Z,6.35
2023-05-24T02:35:36.478Z,7.47
2023-05-24T02:36:39.386Z,10.02
2023-05-24T02:37:42.447Z,9.15
2023-05-24T02:38:45.423Z,12.27
2023-05-24T02:39:48.363Z,8.43
2023-05-24T02:40:51.485Z,8.02
2023-05-24T02:41:54.792Z,8.50
2023-05-24T02:42:57.874Z,8.90
2023-05-24T02:44:00.922Z,10.50
2023-05-24T02:45:04.283Z,7.45
2023-05-24T02:46:07.290Z,8.57
2023-05-24T02:47:10.355Z,8.73
2023-05-24T02:48:13.329Z,6.85
2023-05-24T02:49:16.380Z,7.32
2023-05-24T02:50:19.446Z,7.80
2023-05-24T02:51:22.773Z,9.10
2023-05-24T02:52:27.031Z,9.02
2023-05-24T02:53:31.706Z,7.57
2023-05-24T02:54:34.697Z,7.55
2023-05-24T02:55:37.626Z,4.82
2023-05-24T02:56:41.228Z,5.93
2023-05-24T02:57:44.223Z,9.23
2023-05-24T02:58:47.530Z,7.75
2023-05-24T02:59:50.404Z,9.13
2023-05-24T03:00:53.351Z,8.48
2023-05-24T03:01:56.817Z,8.98
2023-05-24T03:03:03.498Z,7.53
2023-05-24T03:04:06.667Z,8.30
2023-05-24T03:05:10.057Z,7.87
2023-05-24T03:06:14.380Z,11.98
2023-05-24T03:07:17.633Z,9.93
2023-05-24T03:08:20.860Z,10.20
2023-05-24T03:09:23.930Z,9.02
2023-05-24T03:10:26.919Z,11.95
2023-05-24T03:11:30.027Z,10.68
2023-05-24T03:12:33.046Z,13.38
2023-05-24T03:13:36.041Z,11.23
2023-05-24T03:14:39.049Z,11.55
2023-05-24T03:15:43.156Z,13.20
2023-05-24T03:16:46.487Z,13.15
2023-05-24T03:17:49.584Z,15.98
2023-05-24T03:18:55.857Z,10.63
2023-05-24T03:19:58.961Z,10.98
2023-05-24T03:21:01.897Z,15.73
2023-05-24T03:22:05.024Z,13.00
2023-05-24T03:23:10.017Z,15.50
2023-05-24T03:24:13.510Z,14.95
2023-05-24T03:25:16.705Z,11.02
2023-05-24T03:26:20.804Z,16.05
2023-05-24T03:27:23.690Z,13.35
2023-05-24T03:28:27.865Z,11.32
2023-05-24T03:29:31.016Z,16.27
2023-05-24T03:30:34.260Z,17.37
2023-05-24T03:31:37.374Z,13.02
2023-05-24T03:32:40.393Z,13.57
2023-05-24T03:33:43.412Z,14.13
2023-05-24T03:34:46.385Z,11.52
2023-05-24T03:35:49.472Z,13.70
2023-05-24T03:36:53.085Z,13.62
2023-05-24T03:37:56.101Z,13.02
2023-05-24T03:38:59.451Z,13.52
2023-05-24T03:40:04.798Z,11.82
2023-05-24T03:41:07.833Z,13.32
2023-05-24T03:42:10.852Z,13.32
2023-05-24T03:43:13.999Z,13.30
2023-05-24T03:44:17.103Z,14.85
2023-05-24T03:45:30.580Z,18.37
2023-05-24T03:46:41.572Z,14.93
2023-05-24T03:47:44.733Z,15.88
2023-05-24T03:48:49.210Z,17.45
2023-05-24T03:49:52.366Z,21.52
2023-05-24T03:50:55.457Z,15.32
2023-05-24T03:51:58.508Z,12.20
2023-05-24T03:53:01.657Z,13.23
2023-05-24T03:54:04.621Z,21.42
2023-05-24T03:55:07.837Z,14.02
2023-05-24T03:56:10.846Z,14.65
2023-05-24T03:57:14.000Z,14.77
2023-05-24T03:58:17.071Z,14.63
2023-05-24T03:59:20.384Z,14.63
2023-05-24T04:00:23.266Z,16.08
2023-05-24T04:01:33.472Z,13.48
2023-05-24T04:02:38.488Z,16.12
2023-05-24T04:03:41.860Z,14.07
2023-05-24T04:04:46.011Z,12.02
2023-05-24T04:05:49.124Z,12.05
2023-05-24T04:06:52.123Z,15.10
2023-05-24T04:07:55.073Z,13.30
2023-05-24T04:08:59.514Z,16.67
2023-05-24T04:10:02.550Z,14.15
2023-05-24T04:11:05.742Z,16.25
2023-05-24T04:12:08.758Z,14.43
2023-05-24T04:13:11.830Z,15.15
2023-05-24T04:14:14.804Z,12.98
2023-05-24T04:15:18.042Z,16.33
2023-05-24T04:16:21.494Z,16.37
2023-05-24T04:17:25.229Z,14.87
2023-05-24T04:18:28.429Z,18.60
2023-05-24T04:19:31.547Z,12.63
2023-05-24T04:20:34.422Z,16.62
2023-05-24T04:21:38.454Z,17.33
2023-05-24T04:22:41.417Z,18.35
2023-05-24T04:23:44.399Z,14.82
2023-05-24T04:24:47.470Z,15.15
2023-05-24T04:25:50.574Z,14.75
2023-05-24T04:26:53.478Z,14.60
2023-05-24T04:27:57.389Z,12.68
2023-05-24T04:29:00.903Z,15.85
2023-05-24T04:30:04.200Z,15.18
2023-05-24T04:31:07.675Z,15.35
2023-05-24T04:32:10.805Z,13.93
2023-05-24T04:33:13.861Z,18.37
2023-05-24T04:34:16.889Z,16.87
2023-05-24T04:35:19.896Z,13.60
2023-05-24T04:36:24.160Z,14.82
2023-05-24T04:37:27.795Z,14.87
2023-05-24T04:38:32.657Z,12.43
2023-05-24T04:39:35.646Z,13.45
2023-05-24T04:40:38.921Z,14.68
2023-05-24T04:41:41.890Z,13.73
2023-05-24T04:42:45.156Z,14.05
2023-05-24T04:43:48.317Z,12.02
2023-05-24T04:44:51.286Z,13.82
2023-05-24T04:45:55.197Z,14.50
2023-05-24T04:46:58.361Z,13.55
2023-05-24T04:48:01.464Z,14.13
2023-05-24T04:49:06.091Z,13.82
2023-05-24T04:50:09.302Z,12.32
2023-05-24T04:51:12.359Z,13.55
2023-05-24T04:52:15.250Z,16.20
2023-05-24T04:53:18.520Z,15.68
2023-05-24T04:54:21.512Z,15.02
2023-05-24T04:55:24.369Z,16.67
2023-05-24T04:56:27.605Z,13.38
2023-05-24T04:57:30.649Z,14.80
2023-05-24T04:58:34.192Z,14.07
2023-05-24T04:59:37.260Z,13.27
2023-05-24T05:00:40.476Z,15.40
2023-05-24T05:01:43.746Z,15.85
2023-05-24T05:02:47.275Z,14.57
2023-05-24T05:03:50.264Z,17.02
2023-05-24T05:04:53.829Z,14.87
2023-05-24T05:05:56.742Z,15.60
2023-05-24T05:07:00.179Z,17.25
2023-05-24T05:08:04.101Z,16.73
2023-05-24T05:09:10.824Z,16.25
2023-05-24T05:10:13.759Z,15.55
2023-05-24T05:11:17.343Z,16.83
2023-05-24T05:12:20.437Z,16.25
2023-05-24T05:13:23.334Z,15.52
2023-05-24T05:14:26.419Z,16.55
2023-05-24T05:15:29.671Z,16.45
2023-05-24T05:16:33.132Z,18.58
2023-05-24T05:17:36.048Z,16.70
2023-05-24T05:18:39.092Z,19.45
2023-05-24T05:19:42.123Z,16.30
2023-05-24T05:20:45.459Z,18.33
2023-05-24T05:21:48.667Z,17.58
2023-05-24T05:22:51.820Z,14.80
2023-05-24T05:23:55.053Z,16.87
2023-05-24T05:24:58.013Z,15.32
2023-05-24T05:26:01.119Z,15.35
2023-05-24T05:27:04.249Z,17.50
2023-05-24T05:28:07.248Z,16.92
2023-05-24T05:29:10.428Z,17.55
2023-05-24T05:30:14.097Z,16.10
2023-05-24T05:31:17.369Z,17.27
2023-05-24T05:32:20.524Z,16.02
2023-05-24T05:33:23.848Z,14.40
2023-05-24T05:34:27.085Z,13.75
2023-05-24T05:35:30.105Z,13.88
2023-05-24T05:36:33.133Z,13.20
2023-05-24T05:37:36.218Z,13.35
2023-05-24T05:38:39.162Z,12.85
2023-05-24T05:39:42.042Z,13.35
2023-05-24T05:40:45.018Z,12.73
2023-05-24T05:41:47.835Z,13.20
2023-05-24T05:42:51.066Z,14.15
2023-05-24T05:43:53.949Z,12.37
2023-05-24T05:44:57.830Z,13.32
2023-05-24T05:46:03.733Z,13.75
2023-05-24T05:47:09.141Z,13.20
2023-05-24T05:48:12.076Z,12.23
2023-05-24T05:49:16.198Z,13.88
2023-05-24T05:50:19.114Z,12.07
2023-05-24T05:51:22.204Z,12.45
2023-05-24T05:52:25.435Z,12.05
2023-05-24T05:53:28.469Z,12.88
2023-05-24T05:54:31.602Z,13.52
2023-05-24T05:55:34.585Z,16.27
2023-05-24T05:56:41.528Z,12.13
2023-05-24T05:57:44.420Z,11.10
2023-05-24T05:58:47.490Z,12.07
2023-05-24T05:59:51.255Z,13.48
2023-05-24T06:00:54.189Z,13.55
2023-05-24T06:01:57.216Z,11.85
2023-05-24T06:03:00.379Z,15.07
2023-05-24T06:04:03.712Z,12.77
2023-05-24T06:05:07.091Z,10.45
2023-05-24T06:06:10.261Z,12.68
2023-05-24T06:07:13.379Z,11.52
2023-05-24T06:08:16.349Z,14.87
2023-05-24T06:09:19.363Z,11.82
2023-05-24T06:10:22.349Z,10.93
2023-05-24T06:11:25.287Z,12.40
2023-05-24T06:12:28.198Z,11.77
2023-05-24T06:13:33.201Z,10.10
2023-05-24T06:14:38.656Z,11.18
2023-05-24T06:15:41.706Z,11.88
2023-05-24T06:16:46.405Z,10.43
2023-05-24T06:17:50.588Z,14.52
2023-05-24T06:19:05.548Z,12.10
2023-05-24T06:20:11.683Z,10.38
2023-05-24T06:21:15.991Z,14.43
2023-05-24T06:22:19.022Z,10.98
2023-05-24T06:23:21.925Z,12.00
2023-05-24T06:24:25.339Z,10.38
2023-05-24T06:25:31.043Z,9.73
2023-05-24T06:26:33.955Z,11.15
2023-05-24T06:27:36.975Z,13.13
2023-05-24T06:28:40.013Z,11.35
2023-05-24T06:29:42.928Z,10.82
2023-05-24T06:30:47.882Z,11.00
2023-05-24T06:31:51.402Z,12.88
2023-05-24T06:32:54.578Z,12.48
2023-05-24T06:35:05.840Z,12.63
2023-05-24T06:36:08.923Z,15.55
2023-05-24T06:37:15.420Z,12.60
2023-05-24T06:38:18.367Z,11.57
2023-05-24T06:39:21.416Z,11.70
2023-05-24T06:40:24.377Z,10.68
2023-05-24T06:41:28.295Z,11.77
2023-05-24T06:42:31.299Z,12.73
2023-05-24T06:43:34.915Z,11.10
2023-05-24T06:44:37.882Z,10.63
2023-05-24T06:45:40.719Z,10.48
2023-05-24T06:46:43.877Z,10.88
2023-05-24T06:47:47.301Z,11.45
2023-05-24T06:48:50.376Z,11.25
2023-05-24T06:49:53.973Z,11.95
2023-05-24T06:50:57.082Z,12.32
2023-05-24T06:52:00.173Z,10.18
2023-05-24T06:53:03.386Z,14.10
2023-05-24T06:54:07.011Z,12.10
2023-05-24T06:55:10.110Z,13.80
2023-05-24T06:56:13.327Z,11.88
2023-05-24T06:57:16.366Z,11.23
2023-05-24T06:58:19.356Z,11.43
2023-05-24T06:59:23.250Z,14.75
2023-05-24T07:00:26.278Z,12.43
2023-05-24T07:01:30.093Z,17.42
2023-05-24T07:02:33.053Z,11.68
2023-05-24T07:03:36.573Z,14.48
2023-05-24T07:04:41.644Z,15.60
2023-05-24T07:05:44.698Z,12.02
2023-05-24T07:06:47.730Z,11.12
2023-05-24T07:07:50.748Z,13.48
2023-05-24T07:08:53.824Z,15.25
2023-05-24T07:09:57.121Z,12.13
2023-05-24T07:11:00.352Z,13.38
2023-05-24T07:12:03.616Z,11.82
2023-05-24T07:13:07.069Z,15.80
2023-05-24T07:14:09.998Z,11.57
2023-05-24T07:15:13.526Z,13.85
2023-05-24T07:16:16.662Z,14.85
2023-05-24T07:17:19.755Z,15.95
2023-05-24T07:18:22.764Z,11.40
2023-05-24T07:19:29.813Z,14.93
2023-05-24T07:20:33.518Z,11.70
2023-05-24T07:21:37.750Z,11.88
2023-05-24T07:22:41.685Z,12.52
2023-05-24T07:23:44.788Z,14.07
2023-05-24T07:24:47.828Z,13.98
2023-05-24T07:25:51.003Z,13.02
2023-05-24T07:26:54.098Z,11.15
2023-05-24T07:27:57.225Z,13.02
2023-05-24T07:29:00.160Z,13.43
2023-05-24T07:30:04.101Z,11.35
2023-05-24T07:31:08.397Z,14.75
2023-05-24T07:32:11.698Z,14.27
2023-05-24T07:33:14.760Z,12.80
2023-05-24T07:34:21.558Z,12.25
2023-05-24T07:35:25.141Z,12.00
2023-05-24T07:36:31.601Z,11.63
2023-05-24T07:37:37.469Z,11.50
2023-05-24T07:38:40.459Z,12.27
2023-05-24T07:39:43.922Z,12.35
2023-05-24T07:40:46.967Z,14.07
2023-05-24T07:41:51.202Z,14.48
2023-05-24T07:42:54.269Z,11.05
2023-05-24T07:43:57.476Z,12.43
2023-05-24T07:45:00.471Z,11.68
2023-05-24T07:46:03.670Z,12.93
2023-05-24T07:47:07.067Z,13.30
2023-05-24T07:48:10.414Z,13.75
2023-05-24T07:49:13.436Z,11.90
2023-05-24T07:50:16.891Z,12.23
2023-05-24T07:51:20.906Z,12.48
2023-05-24T07:52:24.715Z,10.88
2023-05-24T07:53:27.971Z,11.10
2023-05-24T07:54:30.948Z,11.80
2023-05-24T07:55:34.077Z,13.82
2023-05-24T07:56:38.013Z,11.30
2023-05-24T07:57:41.455Z,11.45
2023-05-24T07:58:47.140Z,13.40
2023-05-24T07:59:50.370Z,13.88
2023-05-24T08:00:53.361Z,11.60
2023-05-24T08:02:01.879Z,12.00
2023-05-24T08:03:06.272Z,13.18
2023-05-24T08:04:10.547Z,10.75
2023-05-24T08:05:14.156Z,11.77
2023-05-24T08:06:17.205Z,11.63
2023-05-24T08:07:20.283Z,11.38
2023-05-24T08:08:23.403Z,13.57
2023-05-24T08:09:28.507Z,11.90
2023-05-24T08:10:31.563Z,13.55
2023-05-24T08:11:34.638Z,12.95
2023-05-24T08:12:37.664Z,12.02
2023-05-24T08:13:40.545Z,13.23
2023-05-24T08:14:43.824Z,12.27
2023-05-24T08:15:46.954Z,12.55
2023-05-24T08:16:49.964Z,9.52
2023-05-24T08:17:52.943Z,9.13
2023-05-24T08:18:55.996Z,10.60
2023-05-24T08:19:59.031Z,9.02
2023-05-24T08:21:02.655Z,9.82
2023-05-24T08:22:05.735Z,9.07
2023-05-24T08:23:08.822Z,9.82
2023-05-24T08:24:12.053Z,10.07
2023-05-24T08:25:15.410Z,10.85
2023-05-24T08:26:19.753Z,13.55
2023-05-24T08:27:22.868Z,10.50
2023-05-24T08:28:27.202Z,12.30
2023-05-24T08:29:30.151Z,9.50
2023-05-24T08:30:33.885Z,9.10
2023-05-24T08:31:36.923Z,10.10
2023-05-24T08:32:40.531Z,13.15
2023-05-24T08:33:43.631Z,9.90
2023-05-24T08:34:46.763Z,10.75
2023-05-24T08:35:51.500Z,10.40
2023-05-24T08:36:55.493Z,9.98
2023-05-24T08:37:58.465Z,12.40
2023-05-24T08:39:01.718Z,9.85
2023-05-24T08:40:05.320Z,9.50
2023-05-24T08:41:08.849Z,8.65
2023-05-24T08:42:12.086Z,10.38
2023-05-24T08:43:15.872Z,9.40
2023-05-24T08:44:19.648Z,11.57
2023-05-24T08:45:23.070Z,10.52
2023-05-24T08:46:26.698Z,10.15
2023-05-24T08:47:31.529Z,8.85
2023-05-24T08:48:47.369Z,9.07
2023-05-24T08:49:52.665Z,13.20
2023-05-24T08:50:57.675Z,7.87
2023-05-24T08:52:01.683Z,8.82
2023-05-24T08:53:07.514Z,9.68
2023-05-24T08:54:12.566Z,8.20
2023-05-24T08:55:15.820Z,10.77
2023-05-24T08:56:19.237Z,9.10
2023-05-24T08:57:22.695Z,8.95
2023-05-24T08:58:26.160Z,7.35
2023-05-24T08:59:29.331Z,11.02
2023-05-24T09:00:32.397Z,7.60
2023-05-24T09:01:37.583Z,10.75
2023-05-24T09:02:43.153Z,9.07
2023-05-24T09:03:47.915Z,8.45
2023-05-24T09:04:53.670Z,9.43
2023-05-24T09:05:56.914Z,7.87
2023-05-24T09:07:00.240Z,8.13
2023-05-24T09:08:03.645Z,8.00
2023-05-24T09:09:07.821Z,7.50
2023-05-24T09:10:11.536Z,8.98
2023-05-24T09:11:16.881Z,8.02
2023-05-24T09:12:35.625Z,8.27
2023-05-24T09:13:41.290Z,14.23
2023-05-24T09:14:47.339Z,9.73
2023-05-24T09:15:50.362Z,8.88
2023-05-24T09:16:54.094Z,7.30
2023-05-24T09:17:57.211Z,7.57
2023-05-24T09:19:00.220Z,7.57
2023-05-24T09:20:07.319Z,8.27
2023-05-24T09:21:13.915Z,10.43
2023-05-24T09:22:23.728Z,7.50
2023-05-24T09:23:27.587Z,7.82
2023-05-24T09:24:30.495Z,7.53
2023-05-24T09:25:33.542Z,9.13
2023-05-24T09:26:37.505Z,7.37
2023-05-24T09:27:40.622Z,6.32
2023-05-24T09:28:44.615Z,8.75
2023-05-24T09:29:52.210Z,7.22
2023-05-24T09:31:03.319Z,7.40
2023-05-24T09:32:10.725Z,10.07
2023-05-24T09:33:13.914Z,10.32
2023-05-24T09:34:17.075Z,6.75
2023-05-24T09:35:20.038Z,9.15
2023-05-24T09:36:22.896Z,7.72
2023-05-24T09:37:31.080Z,5.18
2023-05-24T09:38:36.763Z,6.68
2023-05-24T09:39:52.019Z,8.82
2023-05-24T09:41:03.060Z,6.68
2023-05-24T09:42:06.576Z,8.57
2023-05-24T09:43:10.451Z,8.25
2023-05-24T09:44:15.634Z,9.75
2023-05-24T09:45:18.663Z,8.13
2023-05-24T09:46:22.112Z,8.45
2023-05-24T09:47:32.192Z,6.40
2023-05-24T09:48:35.348Z,7.93
2023-05-24T09:49:39.074Z,6.70
2023-05-24T09:50:42.606Z,8.63
2023-05-24T09:51:46.532Z,6.03
2023-05-24T09:52:49.836Z,8.15
2023-05-24T09:53:57.878Z,7.32
2023-05-24T09:55:01.168Z,7.62
2023-05-24T09:56:05.894Z,12.07
2023-05-24T09:57:08.965Z,7.70
2023-05-24T09:58:13.122Z,8.73
2023-05-24T09:59:16.940Z,9.32
2023-05-24T10:00:24.014Z,6.50
2023-05-24T10:01:28.492Z,6.50
2023-05-24T10:02:41.531Z,6.68
2023-05-24T10:03:59.531Z,6.78
2023-05-24T10:05:03.962Z,6.07
2023-05-24T10:06:11.756Z,8.30
2023-05-24T10:07:16.701Z,6.05
2023-05-24T10:08:21.858Z,7.82
2023-05-24T10:09:26.556Z,5.43
2023-05-24T10:10:31.286Z,6.07
2023-05-24T10:11:40.249Z,5.18
2023-05-24T10:12:47.162Z,5.30
2023-05-24T10:13:50.349Z,7.70
2023-05-24T10:14:57.755Z,6.37
2023-05-24T10:16:00.966Z,6.57
2023-05-24T10:17:05.781Z,7.35
2023-05-24T10:18:11.508Z,6.60
2023-05-24T10:19:17.283Z,8.75
2023-05-24T10:20:20.497Z,6.68
2023-05-24T10:21:25.113Z,7.30
2023-05-24T10:22:28.846Z,6.45
2023-05-24T10:23:32.866Z,6.95
2023-05-24T10:24:48.117Z,5.70
2023-05-24T10:26:22.123Z,6.45
2023-05-24T10:27:31.996Z,7.78
2023-05-24T10:28:57.651Z,4.90
2023-05-24T10:30:16.802Z,6.75
2023-05-24T10:31:32.848Z,5.40
2023-05-24T10:32:39.901Z,8.13
2023-05-24T10:33:45.685Z,10.38
2023-05-24T10:34:49.897Z,5.60
2023-05-24T10:35:54.091Z,5.87
2023-05-24T10:36:59.587Z,7.03
2023-05-24T10:38:06.983Z,8.30
2023-05-24T10:39:13.619Z,7.40
2023-05-24T10:40:20.523Z,6.78
2023-05-24T10:41:29.281Z,5.87
2023-05-24T10:42:32.928Z,7.85
2023-05-24T10:43:36.873Z,7.68
2023-05-24T10:44:39.996Z,6.50
2023-05-24T10:45:43.085Z,6.95
2023-05-24T10:47:07.427Z,5.90
2023-05-24T10:48:13.695Z,6.20
2023-05-24T10:49:19.498Z,5.72
2023-05-24T10:50:24.259Z,10.55
2023-05-24T10:51:42.732Z,5.80
2023-05-24T10:52:46.081Z,6.00
2023-05-24T10:53:50.098Z,5.70
2023-05-24T10:55:05.906Z,5.70
2023-05-24T10:56:13.993Z,7.30
2023-05-24T10:57:24.806Z,5.15
2023-05-24T10:59:00.056Z,5.28
2023-05-24T11:00:34.045Z,8.73
2023-05-24T11:01:38.555Z,7.85
2023-05-24T11:02:41.682Z,7.70
2023-05-24T11:03:44.910Z,5.18
2023-05-24T11:04:49.597Z,5.80
2023-05-24T11:05:55.043Z,6.53
2023-05-24T11:07:03.685Z,8.98
2023-05-24T11:08:07.725Z,4.75
2023-05-24T11:09:11.041Z,7.32
2023-05-24T11:10:17.167Z,7.25
2023-05-24T11:12:34.909Z,7.30
2023-05-24T11:13:39.398Z,5.72
2023-05-24T11:14:49.452Z,6.60
2023-05-24T11:15:52.780Z,6.15
2023-05-24T11:16:56.999Z,6.60
2023-05-24T11:18:26.407Z,5.10
2023-05-24T11:19:46.074Z,5.60
2023-05-24T11:20:50.219Z,5.25
2023-05-24T11:21:53.976Z,9.10
2023-05-24T11:22:57.152Z,5.85
2023-05-24T11:24:00.234Z,7.03
2023-05-24T11:25:06.417Z,6.10
2023-05-24T11:26:10.352Z,5.78
2023-05-24T11:27:14.538Z,5.03
2023-05-24T11:28:18.726Z,6.72
2023-05-24T11:29:23.061Z,4.78
2023-05-24T11:30:26.803Z,5.60
2023-05-24T11:31:29.868Z,5.40
2023-05-24T11:32:33.738Z,4.32
2023-05-24T11:33:42.862Z,5.50
2023-05-24T11:34:47.593Z,5.65
2023-05-24T11:35:55.646Z,5.68
2023-05-24T11:37:00.569Z,7.40
2023-05-24T11:38:03.804Z,5.35
2023-05-24T11:39:10.267Z,5.40
2023-05-24T11:40:15.450Z,5.25
2023-05-24T11:41:18.516Z,5.35
2023-05-24T11:42:23.594Z,6.50
2023-05-24T11:43:26.738Z,5.95
2023-05-24T11:44:32.141Z,6.28
2023-05-24T11:45:35.274Z,8.30
2023-05-24T11:46:40.114Z,5.03
2023-05-24T11:47:43.131Z,6.72
2023-05-24T11:48:56.936Z,4.72
2023-05-24T11:49:59.790Z,4.35
2023-05-24T11:51:05.715Z,5.25
2023-05-24T11:52:09.036Z,5.75
2023-05-24T11:53:17.947Z,5.22
2023-05-24T11:54:22.337Z,4.37
2023-05-24T11:55:25.283Z,4.95
2023-05-24T11:56:33.487Z,4.78
2023-05-24T11:57:41.378Z,6.07
2023-05-24T11:58:53.042Z,5.80
2023-05-24T11:59:56.962Z,4.40
2023-05-24T12:01:00.069Z,4.97
2023-05-24T12:02:07.144Z,4.20
2023-05-24T12:03:10.804Z,4.62
2023-05-24T12:04:14.770Z,7.35
2023-05-24T12:05:19.826Z,4.32
2023-05-24T12:06:23.193Z,4.40
2023-05-24T12:07:26.093Z,6.25
2023-05-24T12:08:29.037Z,5.50
2023-05-24T12:09:32.061Z,4.95
2023-05-24T12:10:36.073Z,4.28
2023-05-24T12:11:50.326Z,5.72
2023-05-24T12:12:53.365Z,5.55
2023-05-24T12:13:58.811Z,5.00
2023-05-24T12:15:01.795Z,5.07
2023-05-24T12:16:04.913Z,7.03
2023-05-24T12:17:18.819Z,5.28
2023-05-24T12:18:22.957Z,4.32
2023-05-24T12:19:33.486Z,4.62
2023-05-24T12:20:39.451Z,6.80
2023-05-24T12:21:43.088Z,5.35
2023-05-24T12:22:53.149Z,4.45
2023-05-24T12:23:56.153Z,5.43
2023-05-24T12:24:59.201Z,8.30
2023-05-24T12:26:02.747Z,4.28
2023-05-24T12:27:08.350Z,4.72
2023-05-24T12:28:13.197Z,5.87
2023-05-24T12:29:17.980Z,4.82
2023-05-24T12:30:25.371Z,4.93
2023-05-24T12:31:28.423Z,3.78
2023-05-24T12:32:31.815Z,4.97
2023-05-24T12:33:35.091Z,10.27
2023-05-24T12:34:40.873Z,3.55
2023-05-24T12:35:44.120Z,4.47
2023-05-24T12:36:48.038Z,3.95
2023-05-24T12:37:59.949Z,5.05
2023-05-24T12:39:32.147Z,6.28
2023-05-24T12:40:35.315Z,4.50
2023-05-24T12:41:38.462Z,5.15
2023-05-24T12:42:41.432Z,5.87
2023-05-24T12:43:44.847Z,4.53
2023-05-24T12:44:52.840Z,4.60
2023-05-24T12:45:56.248Z,5.12
2023-05-24T12:46:59.782Z,5.68
2023-05-24T12:48:05.242Z,4.43
2023-05-24T12:49:08.398Z,4.03
2023-05-24T12:50:11.925Z,4.68
2023-05-24T12:51:15.242Z,4.40
2023-05-24T12:52:18.228Z,4.50
2023-05-24T12:53:24.361Z,8.75
2023-05-24T12:54:28.752Z,4.68
2023-05-24T12:55:31.810Z,4.07
2023-05-24T12:56:34.823Z,4.28
2023-05-24T12:57:37.868Z,6.43
2023-05-24T12:58:41.653Z,3.95
2023-05-24T12:59:44.656Z,4.60
2023-05-24T13:00:50.579Z,3.80
2023-05-24T13:01:54.042Z,7.90
2023-05-24T13:02:59.532Z,3.62
2023-05-24T13:04:02.736Z,4.00
2023-05-24T13:05:06.066Z,3.92
2023-05-24T13:06:09.167Z,4.75
2023-05-24T13:07:12.084Z,3.58
2023-05-24T13:08:15.187Z,4.65
2023-05-24T13:09:23.715Z,4.00
2023-05-24T13:10:27.889Z,3.97
2023-05-24T13:11:31.559Z,4.05
2023-05-24T13:12:34.616Z,3.30
2023-05-24T13:13:38.577Z,4.03
2023-05-24T13:14:41.649Z,3.42
2023-05-24T13:15:45.034Z,4.28
2023-05-24T13:16:48.593Z,3.72
2023-05-24T13:17:51.843Z,4.37
2023-05-24T13:18:55.779Z,4.68
2023-05-24T13:20:05.792Z,5.93
2023-05-24T13:21:11.970Z,5.60
2023-05-24T13:22:15.768Z,4.65
2023-05-24T13:23:18.776Z,3.95
2023-05-24T13:24:22.753Z,5.32
2023-05-24T13:25:26.944Z,3.72
2023-05-24T13:26:30.900Z,8.65
2023-05-24T13:27:34.311Z,5.57
2023-05-24T13:28:38.231Z,4.90
2023-05-24T13:29:59.316Z,3.58
2023-05-24T13:31:04.049Z,3.50
2023-05-24T13:32:07.417Z,3.22
2023-05-24T13:33:10.545Z,4.22
2023-05-24T13:34:13.730Z,3.55
2023-05-24T13:35:16.930Z,6.82
2023-05-24T13:36:20.100Z,6.10
2023-05-24T13:37:24.393Z,4.12
2023-05-24T13:38:27.594Z,3.67
2023-05-24T13:39:30.816Z,4.68
2023-05-24T13:40:33.963Z,3.70
2023-05-24T13:41:37.379Z,2.97
2023-05-24T13:42:40.744Z,3.62
2023-05-24T13:43:43.660Z,4.72
2023-05-24T13:44:46.602Z,4.30
2023-05-24T13:45:49.650Z,6.22
2023-05-24T13:46:52.726Z,4.65
2023-05-24T13:48:03.787Z,5.57
2023-05-24T13:49:07.847Z,3.47
2023-05-24T13:50:11.500Z,5.05
2023-05-24T13:51:14.514Z,3.60
2023-05-24T13:52:18.164Z,3.42
2023-05-24T13:53:22.922Z,4.70
2023-05-24T13:54:26.691Z,3.37
2023-05-24T13:55:31.782Z,3.40
2023-05-24T13:56:35.271Z,3.50
2023-05-24T13:58:44.486Z,5.22
2023-05-24T13:59:47.539Z,4.55
2023-05-24T14:00:50.688Z,4.60
2023-05-24T14:01:53.951Z,4.20
2023-05-24T14:02:58.334Z,3.30
2023-05-24T14:04:02.782Z,3.95
2023-05-24T14:05:25.083Z,3.65
2023-05-24T14:06:29.404Z,12.50
2023-05-24T14:07:32.453Z,7.20
2023-05-24T14:08:35.797Z,5.97
2023-05-24T14:09:38.825Z,3.35
2023-05-24T14:10:41.757Z,4.03
2023-05-24T14:11:45.745Z,5.85
2023-05-24T14:12:59.622Z,4.35
2023-05-24T14:15:17.990Z,3.58
2023-05-24T14:16:21.488Z,3.58
2023-05-24T14:17:24.678Z,3.62
2023-05-24T14:18:29.846Z,6.53
2023-05-24T14:19:33.873Z,4.10